createdAt,value
2023-08-27T00:01:34.126Z,16.00
2023-08-27T00:04:01.131Z,15.90
2023-08-27T00:06:27.974Z,15.90
2023-08-27T00:08:54.750Z,15.90
2023-08-27T00:11:21.579Z,15.90
2023-08-27T00:13:48.350Z,15.80
2023-08-27T00:16:16.047Z,15.70
2023-08-27T00:18:42.980Z,15.60
2023-08-27T00:21:10.083Z,15.60
2023-08-27T00:23:41.236Z,15.60
2023-08-27T00:26:08.246Z,15.60
2023-08-27T00:28:35.333Z,15.50
2023-08-27T00:31:04.377Z,15.60
2023-08-27T00:33:31.714Z,15.50
2023-08-27T00:35:58.601Z,15.60
2023-08-27T00:38:25.406Z,15.60
2023-08-27T00:40:52.420Z,15.50
2023-08-27T00:43:19.806Z,15.50
2023-08-27T00:45:47.073Z,15.60
2023-08-27T00:48:14.151Z,15.50
2023-08-27T00:50:41.640Z,15.40
2023-08-27T00:53:08.879Z,15.30
2023-08-27T00:55:36.579Z,15.30
2023-08-27T00:58:05.123Z,15.30
2023-08-27T01:00:32.220Z,15.40
2023-08-27T01:02:59.388Z,15.40
2023-08-27T01:05:27.675Z,15.40
2023-08-27T01:08:09.748Z,15.30
2023-08-27T01:10:51.545Z,15.40
2023-08-27T01:13:26.854Z,15.30
2023-08-27T01:16:02.612Z,15.20
2023-08-27T01:18:30.567Z,15.20
2023-08-27T01:20:58.913Z,15.30
2023-08-27T01:23:26.967Z,15.30
2023-08-27T01:25:54.657Z,15.20
2023-08-27T01:28:42.189Z,15.20
2023-08-27T01:31:13.039Z,15.10
2023-08-27T01:33:41.392Z,15.10
2023-08-27T01:36:10.423Z,15.10
2023-08-27T01:38:37.447Z,15.00
2023-08-27T01:41:04.552Z,15.10
2023-08-27T01:43:31.850Z,15.00
2023-08-27T01:45:58.722Z,14.90
2023-08-27T01:48:25.526Z,15.00
2023-08-27T01:50:52.371Z,15.10
2023-08-27T01:53:19.198Z,15.10
2023-08-27T01:55:46.080Z,15.10
2023-08-27T01:58:12.983Z,14.90
2023-08-27T02:00:39.908Z,14.90
2023-08-27T02:03:07.707Z,14.90
2023-08-27T02:05:34.624Z,14.80
2023-08-27T02:08:01.401Z,14.80
2023-08-27T02:10:28.148Z,14.80
2023-08-27T02:12:55.336Z,14.80
2023-08-27T02:15:22.155Z,14.80
2023-08-27T02:17:49.022Z,14.70
2023-08-27T02:20:16.007Z,14.70
2023-08-27T02:22:42.837Z,14.80
2023-08-27T02:25:10.378Z,14.90
2023-08-27T02:27:37.503Z,14.80
2023-08-27T02:30:05.329Z,14.80
2023-08-27T02:32:32.446Z,14.80
2023-08-27T02:34:59.360Z,14.70
2023-08-27T02:37:26.124Z,14.70
2023-08-27T02:39:53.001Z,14.70
2023-08-27T02:42:19.867Z,14.70
2023-08-27T02:44:46.627Z,14.70
2023-08-27T02:47:13.417Z,14.70
2023-08-27T02:49:40.242Z,14.60
2023-08-27T02:58:37.310Z,14.70
2023-08-27T03:01:04.496Z,15.00
2023-08-27T03:03:31.349Z,15.00
2023-08-27T03:05:58.439Z,15.00
2023-08-27T03:08:25.238Z,15.00
2023-08-27T03:10:52.989Z,15.00
2023-08-27T03:13:19.903Z,15.10
2023-08-27T03:15:46.738Z,15.00
2023-08-27T03:18:13.560Z,15.10
2023-08-27T03:20:40.725Z,15.10
2023-08-27T03:23:10.101Z,15.20
2023-08-27T03:25:37.564Z,15.30
2023-08-27T03:28:05.240Z,15.30
2023-08-27T03:30:32.092Z,15.40
2023-08-27T03:32:59.258Z,15.50
2023-08-27T03:35:26.467Z,15.40
2023-08-27T03:37:53.269Z,15.50
2023-08-27T03:40:21.592Z,15.50
2023-08-27T03:42:48.753Z,15.40
2023-08-27T03:45:15.843Z,15.40
2023-08-27T03:47:44.755Z,15.40
2023-08-27T03:50:11.908Z,15.30
2023-08-27T03:52:38.690Z,15.20
2023-08-27T03:55:05.916Z,15.20
2023-08-27T03:57:32.889Z,15.20
2023-08-27T03:59:59.663Z,15.10
2023-08-27T04:02:26.512Z,15.10
2023-08-27T04:04:53.458Z,15.10
2023-08-27T04:07:20.282Z,15.10
2023-08-27T04:09:47.009Z,15.20
2023-08-27T04:12:14.003Z,15.20
2023-08-27T04:14:40.804Z,15.10
2023-08-27T04:17:07.548Z,15.10
2023-08-27T04:19:34.517Z,15.10
2023-08-27T04:22:01.284Z,15.10
2023-08-27T04:24:29.947Z,15.00
2023-08-27T04:26:59.932Z,15.00
2023-08-27T04:29:28.178Z,14.90
2023-08-27T04:31:55.516Z,15.00
2023-08-27T04:34:22.585Z,15.10
2023-08-27T04:36:49.389Z,15.20
2023-08-27T04:39:16.147Z,15.20
2023-08-27T04:41:43.088Z,15.10
2023-08-27T04:44:13.117Z,15.10
2023-08-27T04:46:40.309Z,15.10
2023-08-27T04:49:07.302Z,15.10
2023-08-27T04:51:34.189Z,15.20
2023-08-27T04:54:02.991Z,15.30
2023-08-27T04:56:30.179Z,15.20
2023-08-27T04:58:57.103Z,15.30
2023-08-27T05:01:24.066Z,15.30
2023-08-27T05:03:51.193Z,15.30
2023-08-27T05:06:18.165Z,15.30
2023-08-27T05:08:45.033Z,15.30
2023-08-27T05:11:12.001Z,15.30
2023-08-27T05:13:39.296Z,15.30
2023-08-27T05:16:06.313Z,15.40
2023-08-27T05:18:33.474Z,15.40
2023-08-27T05:21:00.367Z,15.40
2023-08-27T05:23:27.277Z,15.40
2023-08-27T05:25:54.391Z,15.50
2023-08-27T05:28:21.239Z,15.40
2023-08-27T05:30:48.971Z,15.50
2023-08-27T05:33:15.868Z,15.50
2023-08-27T05:35:44.496Z,15.60
2023-08-27T05:38:11.591Z,15.70
2023-08-27T05:40:38.448Z,15.90
2023-08-27T05:43:05.602Z,15.90
2023-08-27T05:45:32.544Z,16.00
2023-08-27T05:47:59.925Z,16.10
2023-08-27T05:50:27.009Z,16.00
2023-08-27T05:52:53.988Z,16.10
2023-08-27T05:55:20.903Z,16.60
2023-08-27T05:57:48.017Z,16.90
2023-08-27T06:00:15.573Z,17.00
2023-08-27T06:02:42.371Z,16.80
2023-08-27T06:05:10.438Z,16.90
2023-08-27T06:07:37.659Z,16.60
2023-08-27T06:10:05.347Z,16.40
2023-08-27T06:12:32.180Z,16.20
2023-08-27T06:14:59.188Z,16.20
2023-08-27T06:17:25.949Z,16.40
2023-08-27T06:19:53.252Z,16.70
2023-08-27T06:22:20.216Z,20.20
2023-08-27T06:24:47.254Z,21.50
2023-08-27T06:27:17.216Z,22.90
2023-08-27T06:29:46.178Z,24.60
2023-08-27T06:32:15.200Z,25.30
2023-08-27T06:34:41.922Z,26.20
2023-08-27T06:37:08.987Z,23.90
2023-08-27T06:39:35.806Z,25.70
2023-08-27T06:42:02.979Z,26.40
2023-08-27T06:44:30.555Z,25.50
2023-08-27T06:46:57.630Z,26.80
2023-08-27T06:49:24.957Z,26.60
2023-08-27T06:51:51.922Z,25.70
2023-08-27T06:54:19.162Z,26.50
2023-08-27T06:56:45.919Z,26.10
2023-08-27T06:59:13.015Z,26.20
2023-08-27T07:01:40.483Z,26.70
2023-08-27T07:04:07.488Z,25.50
2023-08-27T07:06:35.183Z,22.80
2023-08-27T07:09:02.837Z,25.00
2023-08-27T07:11:30.119Z,25.40
2023-08-27T07:13:57.311Z,26.40
2023-08-27T07:16:24.091Z,26.00
2023-08-27T07:18:50.841Z,27.10
2023-08-27T07:21:17.947Z,27.10
2023-08-27T07:23:44.804Z,25.00
2023-08-27T07:26:12.528Z,23.10
2023-08-27T07:28:39.532Z,21.60
2023-08-27T07:31:06.310Z,21.10
2023-08-27T07:33:34.943Z,20.30
2023-08-27T07:36:01.872Z,20.00
2023-08-27T07:38:29.060Z,19.70
2023-08-27T07:40:56.108Z,19.70
2023-08-27T07:43:23.429Z,19.80
2023-08-27T07:45:50.203Z,19.70
2023-08-27T07:48:17.425Z,20.00
2023-08-27T07:50:45.154Z,20.60
2023-08-27T07:53:12.288Z,20.70
2023-08-27T07:55:39.195Z,20.80
2023-08-27T07:58:06.236Z,20.70
2023-08-27T08:00:33.093Z,20.90
2023-08-27T08:02:59.909Z,20.30
2023-08-27T08:05:27.059Z,19.70
2023-08-27T08:07:53.837Z,19.30
2023-08-27T08:10:22.164Z,18.70
2023-08-27T08:12:51.259Z,18.40
2023-08-27T08:15:18.182Z,18.00
2023-08-27T08:18:00.298Z,17.50
2023-08-27T08:20:27.345Z,16.90
2023-08-27T08:22:54.133Z,16.30
2023-08-27T08:25:23.823Z,16.10
2023-08-27T08:27:50.768Z,15.80
2023-08-27T08:30:17.662Z,15.80
2023-08-27T08:32:44.723Z,15.60
2023-08-27T08:35:12.008Z,15.50
2023-08-27T08:37:38.819Z,15.60
2023-08-27T08:40:06.836Z,15.60
2023-08-27T08:42:44.844Z,15.80
2023-08-27T08:45:24.904Z,15.80
2023-08-27T08:47:54.979Z,16.00
2023-08-27T08:50:22.965Z,16.10
2023-08-27T08:52:51.461Z,16.10
2023-08-27T08:55:21.863Z,16.20
2023-08-27T08:57:59.781Z,16.30
2023-08-27T09:00:27.472Z,16.20
2023-08-27T09:02:55.529Z,16.20
2023-08-27T09:05:24.839Z,16.10
2023-08-27T09:07:52.666Z,16.00
2023-08-27T09:10:21.184Z,15.90
2023-08-27T09:12:48.988Z,16.00
2023-08-27T09:15:15.938Z,16.10
2023-08-27T09:17:42.691Z,16.10
2023-08-27T09:20:09.897Z,16.10
2023-08-27T09:22:37.816Z,16.20
2023-08-27T09:25:05.583Z,16.50
2023-08-27T09:27:34.139Z,16.70
2023-08-27T09:30:02.080Z,16.60
2023-08-27T09:32:30.553Z,16.70
2023-08-27T09:35:02.199Z,16.80
2023-08-27T09:37:38.316Z,16.70
2023-08-27T09:40:09.388Z,17.00
2023-08-27T09:42:37.648Z,17.20
2023-08-27T09:45:05.417Z,17.40
2023-08-27T09:47:35.020Z,17.60
2023-08-27T09:50:05.785Z,17.60
2023-08-27T09:52:32.867Z,17.60
2023-08-27T09:54:59.825Z,17.40
2023-08-27T09:57:29.720Z,17.30
2023-08-27T09:59:56.557Z,17.00
2023-08-27T10:02:23.460Z,17.00
2023-08-27T10:04:57.888Z,17.00
2023-08-27T10:07:24.990Z,16.90
2023-08-27T10:09:55.120Z,17.00
2023-08-27T10:12:22.951Z,17.00
2023-08-27T10:14:50.223Z,17.20
2023-08-27T10:17:19.908Z,17.40
2023-08-27T10:19:46.945Z,17.40
2023-08-27T10:22:14.235Z,17.40
2023-08-27T10:24:41.986Z,17.50
2023-08-27T10:27:09.418Z,17.60
2023-08-27T10:29:36.794Z,17.50
2023-08-27T10:32:05.502Z,17.70
2023-08-27T10:34:33.020Z,17.60
2023-08-27T10:37:05.919Z,17.30
2023-08-27T10:39:35.004Z,17.10
2023-08-27T10:42:02.227Z,17.30
2023-08-27T10:44:29.184Z,17.30
2023-08-27T10:47:19.329Z,17.20
2023-08-27T10:49:50.428Z,17.00
2023-08-27T10:52:22.435Z,17.20
2023-08-27T10:54:59.052Z,16.90
2023-08-27T10:57:26.634Z,17.00
2023-08-27T11:00:09.143Z,17.10
2023-08-27T11:03:16.528Z,17.10
2023-08-27T11:05:43.477Z,17.10
2023-08-27T11:08:19.303Z,17.20
2023-08-27T11:10:47.634Z,17.00
2023-08-27T11:13:33.745Z,17.10
2023-08-27T11:16:01.415Z,17.00
2023-08-27T11:18:28.665Z,17.10
2023-08-27T11:20:56.338Z,17.00
2023-08-27T11:23:23.100Z,17.20
2023-08-27T11:25:51.596Z,17.50
2023-08-27T11:28:19.675Z,17.60
2023-08-27T11:30:47.178Z,17.70
2023-08-27T11:33:16.528Z,17.80
2023-08-27T11:35:43.518Z,17.60
2023-08-27T11:38:11.869Z,17.60
2023-08-27T11:40:38.801Z,17.80
2023-08-27T11:43:06.215Z,18.30
2023-08-27T11:45:36.166Z,18.60
2023-08-27T11:48:07.668Z,18.30
2023-08-27T11:50:35.521Z,18.30
2023-08-27T11:53:03.085Z,18.50
2023-08-27T11:55:30.390Z,18.60
2023-08-27T11:57:57.225Z,18.60
2023-08-27T12:00:23.992Z,18.70
2023-08-27T12:02:51.564Z,19.00
2023-08-27T12:05:18.693Z,18.80
2023-08-27T12:07:45.497Z,18.90
2023-08-27T12:10:15.102Z,19.30
2023-08-27T12:12:44.265Z,19.10
2023-08-27T12:15:11.824Z,19.20
2023-08-27T12:17:39.232Z,19.30
2023-08-27T12:20:08.516Z,19.60
2023-08-27T12:22:46.095Z,19.20
2023-08-27T12:25:13.736Z,19.00
2023-08-27T12:27:45.718Z,19.20
2023-08-27T12:30:13.120Z,19.00
2023-08-27T12:32:40.401Z,19.40
2023-08-27T12:35:08.521Z,19.40
2023-08-27T12:37:35.863Z,19.20
2023-08-27T12:40:03.211Z,19.60
2023-08-27T12:42:30.261Z,19.50
2023-08-27T12:44:57.063Z,19.50
2023-08-27T12:47:24.364Z,19.70
2023-08-27T12:49:51.795Z,19.80
2023-08-27T12:52:19.269Z,19.90
2023-08-27T12:54:46.214Z,19.90
2023-08-27T12:57:13.254Z,20.00
2023-08-27T12:59:40.190Z,20.30
2023-08-27T13:02:08.407Z,20.00
2023-08-27T13:04:35.826Z,19.80
2023-08-27T13:07:02.834Z,19.80
2023-08-27T13:09:29.856Z,19.90
2023-08-27T13:11:56.958Z,19.60
2023-08-27T13:14:24.092Z,19.70
2023-08-27T13:16:51.446Z,20.00
2023-08-27T13:19:18.381Z,20.10
2023-08-27T13:21:48.352Z,20.10
2023-08-27T13:24:15.347Z,20.50
2023-08-27T13:26:42.310Z,20.80
2023-08-27T13:29:09.354Z,20.50
2023-08-27T13:31:36.241Z,20.40
2023-08-27T13:34:04.344Z,20.60
2023-08-27T13:36:31.560Z,20.60
2023-08-27T13:38:58.548Z,20.40
2023-08-27T13:41:25.731Z,20.40
2023-08-27T13:43:52.505Z,20.40
2023-08-27T13:46:19.357Z,20.50
2023-08-27T13:48:46.377Z,20.50
2023-08-27T13:51:13.233Z,20.70
2023-08-27T13:53:40.050Z,20.80
2023-08-27T13:56:06.991Z,20.90
2023-08-27T13:58:35.151Z,20.80
2023-08-27T14:01:02.087Z,20.80
2023-08-27T14:03:29.401Z,20.90
2023-08-27T14:05:57.114Z,20.70
2023-08-27T14:08:25.481Z,20.80
2023-08-27T14:10:52.766Z,20.70
2023-08-27T14:13:19.752Z,20.60
2023-08-27T14:15:47.251Z,20.70
2023-08-27T14:18:14.933Z,20.80
2023-08-27T14:20:41.887Z,20.70
2023-08-27T14:23:08.709Z,20.50
2023-08-27T14:25:36.276Z,20.70
2023-08-27T14:28:04.121Z,20.80
2023-08-27T14:30:30.959Z,20.80
2023-08-27T14:32:57.915Z,20.80
2023-08-27T14:35:24.786Z,21.20
2023-08-27T14:37:51.724Z,21.30
2023-08-27T14:40:18.898Z,21.30
2023-08-27T14:42:45.907Z,21.30
2023-08-27T14:45:12.730Z,21.10
2023-08-27T14:47:39.821Z,20.80
2023-08-27T14:50:07.066Z,20.60
2023-08-27T14:52:33.916Z,20.50
2023-08-27T14:55:01.778Z,20.40
2023-08-27T14:57:29.927Z,20.20
2023-08-27T14:59:56.678Z,20.10
2023-08-27T15:02:23.673Z,19.40
2023-08-27T15:04:50.487Z,18.80
2023-08-27T15:07:17.394Z,17.90
2023-08-27T15:09:45.076Z,16.90
2023-08-27T15:12:17.633Z,16.50
2023-08-27T15:14:45.796Z,16.20
2023-08-27T15:17:12.789Z,15.80
2023-08-27T15:19:40.416Z,15.20
2023-08-27T15:22:07.604Z,15.10
2023-08-27T15:24:34.622Z,15.10
2023-08-27T15:27:01.466Z,15.00
2023-08-27T15:29:28.528Z,15.00
2023-08-27T15:31:55.540Z,15.00
2023-08-27T15:34:22.314Z,14.90
2023-08-27T15:36:50.860Z,15.10
2023-08-27T15:39:19.066Z,15.30
2023-08-27T15:41:45.870Z,15.50
2023-08-27T15:44:12.801Z,15.60
2023-08-27T15:46:39.858Z,15.80
2023-08-27T15:49:06.681Z,15.80
2023-08-27T15:51:33.926Z,15.90
2023-08-27T15:54:00.722Z,15.80
2023-08-27T15:56:27.575Z,15.70
2023-08-27T15:58:55.419Z,15.70
2023-08-27T16:01:22.320Z,15.50
2023-08-27T16:03:49.223Z,15.50
2023-08-27T16:06:16.303Z,15.40
2023-08-27T16:08:43.289Z,15.30
2023-08-27T16:11:10.310Z,15.50
2023-08-27T16:13:38.542Z,15.50
2023-08-27T16:16:09.200Z,15.50
2023-08-27T16:18:36.762Z,15.50
2023-08-27T16:21:04.574Z,15.70
2023-08-27T16:23:31.420Z,15.70
2023-08-27T16:25:58.506Z,15.80
2023-08-27T16:28:25.639Z,15.80
2023-08-27T16:30:54.207Z,15.70
2023-08-27T16:33:21.361Z,15.70
2023-08-27T16:35:48.173Z,15.70
2023-08-27T16:38:15.043Z,15.80
2023-08-27T16:40:42.014Z,15.80
2023-08-27T16:43:09.336Z,15.80
2023-08-27T16:45:37.196Z,15.80
2023-08-27T16:48:05.505Z,16.00
2023-08-27T16:50:32.902Z,15.90
2023-08-27T16:53:00.078Z,15.90
2023-08-27T16:55:27.416Z,15.90
2023-08-27T16:57:54.326Z,15.70
2023-08-27T17:00:21.805Z,15.60
2023-08-27T17:02:54.254Z,15.60
2023-08-27T17:05:23.583Z,15.60
2023-08-27T17:07:50.451Z,15.50
2023-08-27T17:10:17.470Z,15.50
2023-08-27T17:12:48.042Z,15.50
2023-08-27T17:15:15.644Z,15.50
2023-08-27T17:17:42.735Z,15.40
2023-08-27T17:20:10.438Z,15.40
2023-08-27T17:22:37.233Z,15.30
2023-08-27T17:25:04.454Z,15.30
2023-08-27T17:27:31.591Z,15.30
2023-08-27T17:29:58.445Z,15.30
2023-08-27T17:32:25.666Z,15.30
2023-08-27T17:34:52.516Z,15.20
2023-08-27T17:37:19.393Z,15.20
2023-08-27T17:39:47.049Z,15.20
2023-08-27T17:42:13.889Z,15.20
2023-08-27T17:44:42.876Z,15.10
2023-08-27T17:47:11.167Z,15.10
2023-08-27T17:49:38.159Z,15.00
2023-08-27T17:52:05.183Z,15.00
2023-08-27T17:54:32.184Z,15.00
2023-08-27T17:57:00.732Z,14.90
2023-08-27T17:59:28.067Z,14.90
2023-08-27T18:01:55.319Z,14.90
2023-08-27T18:04:22.432Z,14.80
2023-08-27T18:06:49.269Z,14.80
2023-08-27T18:09:18.500Z,14.80
2023-08-27T18:11:47.668Z,14.70
2023-08-27T18:16:42.384Z,14.70
2023-08-27T18:19:09.737Z,14.70
2023-08-27T18:21:36.659Z,14.60
2023-08-27T18:24:04.060Z,14.50
2023-08-27T18:26:31.145Z,14.50
2023-08-27T18:28:57.932Z,14.50
2023-08-27T18:31:24.914Z,14.40
2023-08-27T18:33:51.818Z,14.40
2023-08-27T18:36:18.563Z,14.30
2023-08-27T18:38:45.443Z,14.30
2023-08-27T18:41:12.680Z,14.30
2023-08-27T18:43:39.631Z,14.20
2023-08-27T18:46:06.763Z,14.10
2023-08-27T18:48:33.991Z,14.10
2023-08-27T18:51:02.602Z,14.00
2023-08-27T18:53:29.879Z,14.10
2023-08-27T18:55:56.988Z,14.00
2023-08-27T18:58:23.919Z,14.00
2023-08-27T19:00:51.322Z,13.90
2023-08-27T19:03:18.742Z,13.80
2023-08-27T19:05:46.374Z,13.90
2023-08-27T19:08:13.486Z,13.90
2023-08-27T19:10:41.054Z,13.90
2023-08-27T19:13:08.734Z,13.90
2023-08-27T19:15:35.932Z,13.80
2023-08-27T19:18:04.633Z,13.80
2023-08-27T19:20:32.081Z,13.80
2023-08-27T19:22:59.294Z,13.80
2023-08-27T19:25:26.658Z,13.70
2023-08-27T19:27:54.285Z,13.80
2023-08-27T19:30:21.948Z,13.70
2023-08-27T19:32:49.244Z,13.70
2023-08-27T19:35:16.359Z,13.70
2023-08-27T19:37:44.052Z,13.60
2023-08-27T19:40:11.568Z,13.60
2023-08-27T19:42:41.346Z,13.70
2023-08-27T19:45:09.566Z,13.70
2023-08-27T19:47:36.706Z,13.70
2023-08-27T19:50:03.667Z,13.70
2023-08-27T19:52:30.831Z,13.70
2023-08-27T19:54:57.692Z,13.60
2023-08-27T19:57:24.980Z,13.60
2023-08-27T19:59:54.643Z,13.70
2023-08-27T20:02:22.399Z,13.70
2023-08-27T20:04:49.596Z,13.60
2023-08-27T20:07:16.949Z,13.60
2023-08-27T20:09:43.790Z,13.50
2023-08-27T20:12:10.979Z,13.40
2023-08-27T20:14:38.018Z,13.40
2023-08-27T20:17:05.027Z,13.40
2023-08-27T20:19:31.989Z,13.30
2023-08-27T20:21:59.064Z,13.40
2023-08-27T20:24:26.004Z,13.40
2023-08-27T20:26:53.879Z,13.50
2023-08-27T20:29:21.348Z,13.40
2023-08-27T20:31:48.342Z,13.40
2023-08-27T20:34:15.180Z,13.30
2023-08-27T20:36:42.632Z,13.30
2023-08-27T20:39:10.305Z,13.30
2023-08-27T20:41:37.188Z,13.20
2023-08-27T20:44:04.746Z,13.20
2023-08-27T20:46:31.707Z,13.20
2023-08-27T20:48:58.512Z,13.20
2023-08-27T20:51:25.444Z,13.20
2023-08-27T20:53:52.384Z,13.30
2023-08-27T20:56:19.258Z,13.20
2023-08-27T20:58:46.296Z,13.20
2023-08-27T21:01:13.810Z,13.30
2023-08-27T21:03:40.896Z,13.30
2023-08-27T21:06:07.841Z,13.30
2023-08-27T21:08:34.801Z,13.30
2023-08-27T21:11:09.524Z,13.30
2023-08-27T21:13:37.285Z,13.30
2023-08-27T21:16:04.385Z,13.30
2023-08-27T21:18:34.319Z,13.40
2023-08-27T21:21:01.096Z,13.40
2023-08-27T21:23:27.834Z,13.30
2023-08-27T21:25:54.750Z,13.30
2023-08-27T21:28:24.649Z,13.20
2023-08-27T21:30:51.546Z,13.10
2023-08-27T21:33:18.580Z,13.10
2023-08-27T21:35:45.464Z,13.00
2023-08-27T21:38:12.301Z,13.00
2023-08-27T21:40:43.369Z,13.00
2023-08-27T21:43:11.107Z,13.00
2023-08-27T21:45:39.054Z,13.10
2023-08-27T21:48:07.225Z,13.10
2023-08-27T21:50:37.738Z,13.00
2023-08-27T21:53:07.135Z,13.10
2023-08-27T21:55:35.089Z,13.10
2023-08-27T21:58:02.003Z,13.00
2023-08-27T22:00:53.721Z,13.00
2023-08-27T22:03:23.758Z,13.10
2023-08-27T22:05:50.940Z,13.00
2023-08-27T22:08:18.013Z,13.00
2023-08-27T22:10:44.787Z,12.90
2023-08-27T22:13:12.241Z,12.90
2023-08-27T22:15:39.000Z,12.90
2023-08-27T22:18:06.003Z,12.80
2023-08-27T22:20:35.940Z,12.80
2023-08-27T22:23:03.410Z,12.80
2023-08-27T22:25:30.355Z,12.80
2023-08-27T22:27:57.248Z,12.80
2023-08-27T22:30:23.983Z,12.80
2023-08-27T22:32:51.637Z,12.80
2023-08-27T22:35:19.821Z,12.70
2023-08-27T22:37:46.783Z,12.80
2023-08-27T22:40:13.628Z,12.70
2023-08-27T22:42:40.793Z,12.70
2023-08-27T22:45:08.786Z,12.70
2023-08-27T22:47:35.943Z,12.70
2023-08-27T22:50:02.935Z,12.80
2023-08-27T22:52:31.193Z,12.80
2023-08-27T22:54:58.219Z,12.80
2023-08-27T22:57:25.278Z,12.80
2023-08-27T22:59:52.149Z,12.70
2023-08-27T23:02:21.007Z,12.70
2023-08-27T23:04:48.989Z,12.70
2023-08-27T23:07:15.990Z,12.70
2023-08-27T23:09:42.796Z,12.60
2023-08-27T23:12:09.658Z,12.60
2023-08-27T23:14:36.514Z,12.50
2023-08-27T23:17:03.476Z,12.50
2023-08-27T23:19:30.523Z,12.40
2023-08-27T23:21:57.657Z,12.30
2023-08-27T23:24:24.699Z,12.30
2023-08-27T23:26:51.962Z,12.30
2023-08-27T23:29:18.768Z,12.30
2023-08-27T23:31:45.618Z,12.30
2023-08-27T23:34:12.601Z,12.40
2023-08-27T23:36:39.344Z,12.40
2023-08-27T23:39:06.221Z,12.40
2023-08-27T23:41:33.657Z,12.50
2023-08-27T23:44:01.093Z,12.50
2023-08-27T23:46:30.916Z,12.40
2023-08-27T23:48:59.516Z,12.40
2023-08-27T23:51:26.300Z,12.40
2023-08-27T23:53:53.244Z,12.30
2023-08-27T23:56:20.285Z,12.30
2023-08-27T23:58:47.260Z,12.30
